• Join FlightAware (Why Join?)
  • Login
  • US Flag 
03:15AM EDT


 

Airport Tracker/Info


-or-


 

Live Flight TrackerFlight Track Log ✈ SQH3323 ✈ 02-Sep-2010 ✈ KPDT - KPDX

Flight Track Log - Related Links

Times and Time Zones

All times are in EDT time to prevent confusion due to time zone crossing. See the SQH3323 flight status page for this flight to view local times or setup timezone preferences in your user account.

Time Position Orientation Groundspeed Altitude Reporting Facility
EDT Latitude Longitude Course Direction KTS MPH feet Rate Location/Type
07:51PM 45.7122 -118.8580 255° West 174 200 3,700  Level Seattle Center
07:53PM 45.6883 -118.9840 257° West 176 203 6,100 1,380 Climbing Seattle Center
07:54PM 45.6783 -119.0460 250° West 176 203 7,600 1,380 Climbing Seattle Center
07:55PM 45.6619 -119.1090 248° West 176 203 8,900 1,200 Climbing Seattle Center
07:56PM 45.6436 -119.1740 255° West 176 203 10,100 1,200 Climbing Seattle Center
07:57PM 45.6314 -119.2370 258° West 176 203 11,400 1,320 Climbing Seattle Center
07:58PM 45.6214 -119.3050 270° West 181 208 12,800 1,200 Climbing Seattle Center
07:59PM 45.6217 -119.3730 266° West 181 208 13,900 540 Climbing Seattle Center
08:00PM 45.6178 -119.4590 268° West 192 221 13,900  Level Seattle Center
08:01PM 45.6158 -119.5480 267° West 211 243 14,000  Climbing Seattle Center
08:02PM 45.6119 -119.6430 268° West 235 270 13,900 -60 Descending Seattle Center
08:03PM 45.6097 -119.7380 267° West 240 276 13,900  Level Seattle Center
08:04PM 45.6056 -119.8360 268° West 240 276 13,900  Level Seattle Center
08:05PM 45.6036 -119.9280 266° West 240 276 14,000  Climbing Seattle Center
08:06PM 45.5992 -120.0260 266° West 245 282 14,000  Level Seattle Center
08:07PM 45.5947 -120.1210 268° West 245 282 14,000  Level Seattle Center
08:08PM 45.5925 -120.2160 266° West 245 282 14,000  Level Seattle Center
08:09PM 45.5878 -120.3110 266° West 245 282 14,000  Level Seattle Center
08:10PM 45.5831 -120.4180 268° West 245 282 14,000  Level Seattle Center
08:11PM 45.5806 -120.5120 264° West 245 282 14,000  Level Seattle Center
08:12PM 45.5736 -120.6070 268° West 250 288 14,000  Level Seattle Center
08:13PM 45.5708 -120.7020 266° West 250 288 14,000  Level Seattle Center
08:14PM 45.5658 -120.8000 267° West 250 288 14,000  Level Seattle Center
08:15PM 45.5628 -120.8940 267° West 245 282 14,000  Level Seattle Center
08:16PM 45.5597 -120.9890 266° West 245 282 14,100  Climbing Seattle Center
08:17PM 45.5547 -121.0840 265° West 245 282 14,100  Level Seattle Center
08:18PM 45.5497 -121.1580 266° West 245 282 14,100 -60 Level Seattle Center
08:19PM 45.5439 -121.2730 267° West 245 282 14,000 -60 Descending Seattle Center
08:20PM 45.5406 -121.3680 269° West 245 282 14,000  Level Seattle Center
08:20PM 45.5400 -121.4220 265° West 243 280 14,000 -420 Level Seattle Center
08:21PM 45.5372 -121.4660 269° West 245 282 13,600 -1,020 Descending Seattle Center
08:21PM 45.5361 -121.5430 244° Southwest 248 285 12,800 -1,020 Descending Seattle Center
08:22PM 45.5294 -121.5630 271° West 251 289 12,600 -840 Descending Seattle Center
08:22PM 45.5303 -121.6440 245° Southwest 251 289 12,000 -600 Descending Seattle Center
08:23PM 45.5239 -121.6640 268° West 251 289 12,000 -840 Level Seattle Center
08:23PM 45.5222 -121.7500 265° West 250 288 11,100 -1,020 Descending Seattle Center
08:24PM 45.5167 -121.8410 274° West 260 299 10,200 -540 Descending Seattle Center
08:25PM 45.5228 -121.9600 281° West 255 293 10,100 -60 Descending Seattle Center
08:26PM 45.5356 -122.0560 277° West 250 288 10,100  Level Seattle Center
08:27PM 45.5439 -122.1510 279° West 251 289 10,100  Level Seattle Center
08:28PM 45.5544 -122.2460 288° West 251 289 10,100  Level Seattle Center
08:29PM 45.5753 -122.3390 300° West 252 290 10,100 -60 Level Seattle Center
08:30PM 45.6069 -122.4180 290° West 246 283 10,000 -120 Descending Seattle Center
08:31PM 45.6108 -122.4330 298° West 255 293 10,000 -1,560 Level Seattle Center
08:32PM 45.6422 -122.5170 299° West 250 288 8,100 -2,220 Descending Seattle Center
08:32PM 45.6736 -122.5990 296° West 230 265 5,900 -2,040 Descending Seattle Center
08:34PM 45.7028 -122.6840 293° West 232 267 4,100 -960 Descending Seattle Center
08:34PM 45.7219 -122.7500 296° West 205 236 4,000 -60 Descending Seattle Center
08:35PM 45.7469 -122.8230 261° West 205 236 4,000  Level Seattle Center
08:37PM 45.7389 -122.8940 180° South 198 228 4,000  Level Seattle Center
08:38PM 45.6972 -122.8940 119° Southeast 177 204 4,000 -360 Level Seattle Center
08:39PM 45.6739 -122.8340 116° Southeast 173 199 3,300 -900 Descending Seattle Center
08:40PM 45.6525 -122.7700 122° Southeast 173 199 2,200 -780 Descending Seattle Center
08:40PM 45.6369 -122.7340 121° Southeast 122 140 1,800 -540 Descending Seattle Center
08:42PM 45.6211 -122.6970 116° Southeast 106 122 1,200 -660 Descending Seattle Center
08:43PM 45.6075 -122.6580 116° Southeast 106 122 500 -720 Descending Seattle Center